Time;durP1;ratioP1;P1;durP2;ratioP2;P2;SDS_P1;SDS_P2;PMS_P1;PMS_P2;Temp;Humidity;BMP_temperature;BMP_pressure;BME280_temperature;BME280_humidity;BME280_pressure;Samples;Min_cycle;Max_cycle;Signal;HPM_P1;HPM_P2
2022/12/10 00:02:08;;;;;;;;;;;0.30;99.90;;;;;;5073982;28;19951;-65
2022/12/10 00:04:34;;;;;;;;;;;0.30;99.90;;;;;;5074210;28;19955;-66
2022/12/10 00:06:59;;;;;;;;;;;0.30;99.90;;;;;;5074282;28;20362;-65
2022/12/10 00:09:25;;;;;;;;;;;0.30;99.90;;;;;;5074225;28;19923;-65
2022/12/10 00:11:50;;;;;;;;;;;0.30;99.90;;;;;;5073973;28;19908;-66
2022/12/10 00:14:16;;;;;;;;;;;0.30;99.90;;;;;;5056432;28;19959;-65
2022/12/10 00:16:42;;;;;;;;;;;0.30;99.90;;;;;;5073831;28;20000;-65
2022/12/10 00:19:08;;;;;;;;;;;0.30;99.90;;;;;;5074067;28;19908;-65
2022/12/10 00:21:34;;;;;;;;;;;0.30;99.90;;;;;;5056257;28;19951;-65
2022/12/10 00:24:00;;;;;;;;;;;0.30;99.90;;;;;;5073798;28;19909;-65
2022/12/10 00:26:28;;;;;;;;;;;0.30;99.90;;;;;;5074000;28;20320;-65
2022/12/10 00:28:55;;;;;;;;;;;0.40;99.90;;;;;;5073688;28;19915;-66
2022/12/10 00:31:37;;;;;;;;;;;0.30;99.90;;;;;;5073937;28;19912;-65
2022/12/10 00:34:04;;;;;;;;;;;0.30;99.90;;;;;;5073923;28;19908;-66
2022/12/10 00:36:32;;;;;;;;;;;0.30;99.90;;;;;;5073933;28;20273;-65
2022/12/10 00:38:58;;;;;;;;;;;0.30;99.90;;;;;;5073854;28;19930;-65
2022/12/10 00:41:23;;;;;;;;;;;0.30;99.90;;;;;;5073574;28;19908;-65
2022/12/10 00:43:49;;;;;;;;;;;0.40;99.90;;;;;;5073510;28;20424;-65
2022/12/10 00:46:15;;;;;;;;;;;0.40;99.90;;;;;;5073763;28;19913;-66
2022/12/10 00:48:41;;;;;;;;;;;0.40;99.90;;;;;;5073780;28;20365;-66
2022/12/10 00:51:09;;;;;;;;;;;0.40;99.90;;;;;;5073722;28;20007;-65
2022/12/10 00:53:35;;;;;;;;;;;0.40;99.90;;;;;;5073431;28;19920;-66
2022/12/10 00:56:00;;;;;;;;;;;0.40;99.90;;;;;;5073731;28;19909;-66
2022/12/10 00:58:27;;;;;;;;;;;0.40;99.90;;;;;;5073437;28;20337;-65
2022/12/10 01:00:53;;;;;;;;;;;0.40;99.90;;;;;;5073409;28;19908;-66
2022/12/10 01:03:18;;;;;;;;;;;0.40;99.90;;;;;;5073403;28;20366;-65
2022/12/10 01:05:43;;;;;;;;;;;0.40;99.90;;;;;;5073926;28;19999;-66
2022/12/10 01:08:09;;;;;;;;;;;0.40;99.90;;;;;;5077368;28;19990;-65
2022/12/10 01:10:34;;;;;;;;;;;0.40;99.90;;;;;;5059404;28;19956;-66
2022/12/10 01:13:00;;;;;;;;;;;0.40;99.90;;;;;;5077534;28;19915;-65
2022/12/10 01:15:26;;;;;;;;;;;0.40;99.90;;;;;;5077245;28;20305;-65
2022/12/10 01:17:51;;;;;;;;;;;0.50;99.90;;;;;;5077187;28;19940;-65
2022/12/10 01:20:16;;;;;;;;;;;0.40;99.90;;;;;;5077172;28;19909;-65
2022/12/10 01:22:42;;;;;;;;;;;0.40;99.90;;;;;;5077357;28;19995;-65
2022/12/10 01:25:08;;;;;;;;;;;0.40;99.90;;;;;;5076957;28;19956;-65
2022/12/10 01:27:33;;;;;;;;;;;0.40;99.90;;;;;;5076986;28;19909;-65
2022/12/10 01:29:58;;;;;;;;;;;0.40;99.90;;;;;;5076998;28;19930;-65
2022/12/10 01:32:24;;;;;;;;;;;0.40;99.90;;;;;;5076851;28;19912;-65
2022/12/10 01:34:49;;;;;;;;;;;0.40;99.90;;;;;;5077134;28;19956;-65
2022/12/10 01:37:15;;;;;;;;;;;0.40;99.90;;;;;;5077068;28;19909;-66
2022/12/10 01:39:41;;;;;;;;;;;0.30;99.90;;;;;;5077081;28;19927;-65
2022/12/10 01:42:09;;;;;;;;;;;0.30;99.90;;;;;;5076801;28;20370;-65
2022/12/10 01:47:20;;;;;;;;;;;0.30;99.90;;;;;;5091330;27;19922;-64
2022/12/10 01:49:46;;;;;;;;;;;0.20;99.90;;;;;;5091492;28;20002;-64
2022/12/10 01:52:12;;;;;;;;;;;0.20;99.90;;;;;;5091162;28;19918;-64
2022/12/10 01:54:41;;;;;;;;;;;0.20;99.90;;;;;;5091045;28;19908;-64
2022/12/10 01:57:09;;;;;;;;;;;0.20;99.90;;;;;;5089800;28;19908;-64
2022/12/10 01:59:35;;;;;;;;;;;0.20;99.90;;;;;;5091271;28;19935;-64
2022/12/10 02:02:08;;;;;;;;;;;0.20;99.90;;;;;;5090941;28;20301;-64
2022/12/10 02:04:43;;;;;;;;;;;0.20;99.90;;;;;;5091268;28;19909;-64
2022/12/10 02:07:28;;;;;;;;;;;0.30;99.90;;;;;;5090803;28;20281;-64
2022/12/10 02:10:14;;;;;;;;;;;0.30;99.90;;;;;;5090826;28;20408;-65
2022/12/10 02:12:55;;;;;;;;;;;0.30;99.90;;;;;;5090801;28;19909;-64
2022/12/10 02:15:23;;;;;;;;;;;0.30;99.90;;;;;;5090700;28;19919;-64
2022/12/10 02:17:52;;;;;;;;;;;0.30;99.90;;;;;;5090643;28;19915;-64
2022/12/10 02:20:24;;;;;;;;;;;0.30;99.90;;;;;;5090651;28;19908;-64
2022/12/10 02:22:53;;;;;;;;;;;0.40;99.90;;;;;;5090816;28;19909;-64
2022/12/10 02:25:21;;;;;;;;;;;0.30;99.90;;;;;;5090432;28;20362;-64
2022/12/10 02:27:52;;;;;;;;;;;0.30;99.90;;;;;;5090521;28;19915;-64
2022/12/10 02:30:18;;;;;;;;;;;0.30;99.90;;;;;;5090411;28;20374;-64
2022/12/10 02:32:44;;;;;;;;;;;0.30;99.90;;;;;;5090648;28;20370;-64
2022/12/10 02:35:13;;;;;;;;;;;0.30;99.90;;;;;;5090589;28;20401;-64
2022/12/10 02:37:43;;;;;;;;;;;0.40;99.90;;;;;;5090317;28;19908;-64
2022/12/10 02:40:11;;;;;;;;;;;0.40;99.90;;;;;;5090480;28;20362;-64
2022/12/10 02:42:37;;;;;;;;;;;0.40;99.90;;;;;;5090187;28;19931;-65
2022/12/10 02:45:03;;;;;;;;;;;0.40;99.90;;;;;;5091521;28;20374;-64
2022/12/10 02:47:29;;;;;;;;;;;0.40;99.90;;;;;;5110506;28;19961;-65
2022/12/10 02:49:56;;;;;;;;;;;0.40;99.90;;;;;;5110632;28;20366;-64
2022/12/10 02:52:22;;;;;;;;;;;0.40;99.90;;;;;;5110611;28;19908;-64
2022/12/10 02:54:49;;;;;;;;;;;0.40;99.90;;;;;;5092043;28;19908;-64
2022/12/10 02:57:22;;;;;;;;;;;0.40;99.90;;;;;;5105012;28;20411;-65
2022/12/10 02:59:58;;;;;;;;;;;0.40;99.90;;;;;;5096877;28;19915;-65
2022/12/10 03:02:34;;;;;;;;;;;0.40;99.90;;;;;;5096543;28;19961;-65
2022/12/10 03:05:18;;;;;;;;;;;0.40;99.90;;;;;;5096746;28;20373;-66
2022/12/10 03:07:56;;;;;;;;;;;0.40;99.90;;;;;;5096750;28;19915;-64
2022/12/10 03:10:42;;;;;;;;;;;0.40;99.90;;;;;;5096649;28;19915;-64
2022/12/10 03:13:09;;;;;;;;;;;0.40;99.90;;;;;;5096273;28;19980;-64
2022/12/10 03:15:38;;;;;;;;;;;0.40;99.90;;;;;;5096291;28;19912;-65
2022/12/10 03:18:04;;;;;;;;;;;0.40;99.90;;;;;;5096265;28;19908;-65
2022/12/10 03:20:31;;;;;;;;;;;0.40;99.90;;;;;;5096511;28;20328;-64
2022/12/10 03:22:57;;;;;;;;;;;0.40;99.90;;;;;;5096459;28;20003;-65
2022/12/10 03:25:23;;;;;;;;;;;0.40;99.90;;;;;;5096052;28;20440;-65
2022/12/10 03:27:51;;;;;;;;;;;0.40;99.90;;;;;;5096359;28;20259;-64
2022/12/10 03:30:16;;;;;;;;;;;0.40;99.90;;;;;;5096062;28;19915;-65
2022/12/10 03:32:43;;;;;;;;;;;0.40;99.90;;;;;;5096011;28;20361;-64
2022/12/10 03:35:09;;;;;;;;;;;0.40;99.90;;;;;;5095954;28;19908;-64
2022/12/10 03:37:34;;;;;;;;;;;0.40;99.90;;;;;;5095900;28;19999;-64
2022/12/10 03:40:00;;;;;;;;;;;0.40;99.90;;;;;;5095882;28;19908;-64
2022/12/10 03:42:25;;;;;;;;;;;0.40;99.90;;;;;;5096079;28;19915;-64
2022/12/10 03:44:51;;;;;;;;;;;0.40;99.90;;;;;;5096044;28;19912;-65
2022/12/10 03:47:17;;;;;;;;;;;0.40;99.90;;;;;;5095943;28;20377;-64
2022/12/10 03:49:43;;;;;;;;;;;0.40;99.90;;;;;;5095696;28;20273;-64
2022/12/10 03:52:08;;;;;;;;;;;0.50;99.90;;;;;;5095636;28;19908;-65
2022/12/10 03:54:34;;;;;;;;;;;0.40;99.90;;;;;;5095568;28;19916;-65
2022/12/10 03:56:59;;;;;;;;;;;0.40;99.90;;;;;;5095544;28;20431;-64
2022/12/10 03:59:25;;;;;;;;;;;0.40;99.90;;;;;;5095450;28;19915;-64
2022/12/10 04:01:50;;;;;;;;;;;0.40;99.90;;;;;;5095679;28;19916;-64
2022/12/10 04:04:15;;;;;;;;;;;0.40;99.90;;;;;;5095664;28;19908;-67
2022/12/10 04:06:41;;;;;;;;;;;0.50;99.90;;;;;;5095522;28;19944;-64
2022/12/10 04:09:09;;;;;;;;;;;0.40;99.90;;;;;;5094558;28;19908;-64
2022/12/10 04:11:34;;;;;;;;;;;0.40;99.90;;;;;;5095226;28;19917;-64
2022/12/10 04:16:45;;;;;;;;;;;0.40;99.90;;;;;;5094915;28;19990;-64
2022/12/10 04:19:12;;;;;;;;;;;0.40;99.90;;;;;;5077369;28;19969;-64
2022/12/10 04:27:13;;;;;;;;;;;0.50;99.90;;;;;;5094669;28;19919;-64
2022/12/10 04:29:38;;;;;;;;;;;0.50;99.90;;;;;;5095144;28;20021;-65
2022/12/10 04:32:04;;;;;;;;;;;0.50;99.90;;;;;;5094838;28;19908;-64
2022/12/10 04:34:29;;;;;;;;;;;0.40;99.90;;;;;;5094807;28;19908;-66
2022/12/10 04:36:56;;;;;;;;;;;0.40;99.90;;;;;;5094987;28;19916;-64
2022/12/10 04:39:22;;;;;;;;;;;0.40;99.90;;;;;;5076548;28;19962;-64
2022/12/10 04:41:48;;;;;;;;;;;0.40;99.90;;;;;;5094944;28;19908;-64
2022/12/10 04:44:14;;;;;;;;;;;0.50;99.90;;;;;;5094880;28;20332;-64
2022/12/10 04:46:39;;;;;;;;;;;0.50;99.90;;;;;;5094402;28;19920;-64
2022/12/10 04:49:05;;;;;;;;;;;0.40;99.90;;;;;;5076348;28;19915;-65
2022/12/10 04:51:30;;;;;;;;;;;0.40;99.90;;;;;;5094421;28;19919;-65
2022/12/10 04:53:56;;;;;;;;;;;0.50;99.90;;;;;;5094705;28;19908;-64
2022/12/10 04:56:21;;;;;;;;;;;0.40;99.90;;;;;;5094661;28;19915;-64
2022/12/10 04:58:47;;;;;;;;;;;0.50;99.90;;;;;;5094409;28;20350;-65
2022/12/10 05:01:12;;;;;;;;;;;0.50;99.90;;;;;;5094353;28;19916;-65
2022/12/10 05:03:38;;;;;;;;;;;0.50;99.90;;;;;;5094541;28;19908;-64
2022/12/10 05:06:05;;;;;;;;;;;0.50;99.90;;;;;;5076134;28;19916;-65
2022/12/10 05:08:30;;;;;;;;;;;0.50;99.90;;;;;;5094306;28;19978;-64
2022/12/10 05:11:00;;;;;;;;;;;0.50;99.90;;;;;;5094420;28;20419;-65
2022/12/10 05:13:26;;;;;;;;;;;0.50;99.90;;;;;;5094158;28;19912;-65
2022/12/10 05:15:51;;;;;;;;;;;0.50;99.90;;;;;;5094126;28;19912;-64
2022/12/10 05:18:17;;;;;;;;;;;0.50;99.90;;;;;;5094059;28;20026;-65
2022/12/10 05:20:42;;;;;;;;;;;0.50;99.90;;;;;;5094066;28;19938;-64
2022/12/10 05:23:39;;;;;;;;;;;0.50;99.90;;;;;;5076068;28;19923;-64
2022/12/10 05:26:10;;;;;;;;;;;0.50;99.90;;;;;;5093746;28;19959;-65
2022/12/10 05:28:37;;;;;;;;;;;0.50;99.90;;;;;;5076330;28;19915;-65
2022/12/10 05:31:03;;;;;;;;;;;0.50;99.90;;;;;;5094153;28;19916;-64
2022/12/10 05:33:28;;;;;;;;;;;0.50;99.90;;;;;;5094136;28;19915;-64
2022/12/10 05:35:55;;;;;;;;;;;0.50;99.90;;;;;;5094088;28;20037;-65
2022/12/10 05:38:21;;;;;;;;;;;0.40;99.90;;;;;;5093762;28;19913;-64
2022/12/10 05:40:46;;;;;;;;;;;0.40;99.90;;;;;;5093791;28;19915;-64
2022/12/10 05:43:12;;;;;;;;;;;0.40;99.90;;;;;;5094021;28;20022;-64
2022/12/10 05:45:37;;;;;;;;;;;0.50;99.90;;;;;;5093639;28;20369;-64
2022/12/10 05:48:03;;;;;;;;;;;0.50;99.90;;;;;;5093964;28;19915;-64
2022/12/10 05:50:30;;;;;;;;;;;0.40;99.90;;;;;;5093703;28;19916;-64
2022/12/10 05:52:55;;;;;;;;;;;0.40;99.90;;;;;;5093687;28;19908;-64
2022/12/10 05:55:21;;;;;;;;;;;0.40;99.90;;;;;;5093643;28;19908;-64
2022/12/10 05:57:46;;;;;;;;;;;0.40;99.90;;;;;;5093625;28;20417;-64
2022/12/10 06:00:12;;;;;;;;;;;0.50;99.90;;;;;;5093577;28;19915;-65
2022/12/10 06:02:37;;;;;;;;;;;0.50;99.90;;;;;;5093489;28;19908;-64
2022/12/10 06:05:03;;;;;;;;;;;0.50;99.90;;;;;;5093613;28;20366;-64
2022/12/10 06:07:29;;;;;;;;;;;0.50;99.90;;;;;;5093537;28;19962;-64
2022/12/10 06:09:55;;;;;;;;;;;0.50;99.90;;;;;;5093482;28;19908;-64
2022/12/10 06:12:21;;;;;;;;;;;0.50;99.90;;;;;;5093380;28;19981;-65
2022/12/10 06:14:47;;;;;;;;;;;0.50;99.90;;;;;;5075463;28;19930;-64
2022/12/10 06:17:12;;;;;;;;;;;0.50;99.90;;;;;;5093689;28;20278;-64
2022/12/10 06:19:38;;;;;;;;;;;0.50;99.90;;;;;;5093420;28;19908;-64
2022/12/10 06:22:03;;;;;;;;;;;0.50;99.90;;;;;;5093682;28;19908;-65
2022/12/10 06:24:29;;;;;;;;;;;0.40;99.90;;;;;;5093632;28;19923;-64
2022/12/10 06:26:54;;;;;;;;;;;0.40;99.90;;;;;;5093552;28;19991;-64
2022/12/10 06:29:19;;;;;;;;;;;0.40;99.90;;;;;;5093332;28;20483;-64
2022/12/10 06:31:45;;;;;;;;;;;0.40;99.90;;;;;;5093297;28;19915;-64
2022/12/10 06:34:10;;;;;;;;;;;0.40;99.90;;;;;;5097360;28;19912;-64
2022/12/10 06:36:36;;;;;;;;;;;0.50;99.90;;;;;;5097388;28;19939;-64
2022/12/10 06:39:02;;;;;;;;;;;0.50;99.90;;;;;;5097311;28;19939;-64
2022/12/10 06:41:27;;;;;;;;;;;0.40;99.90;;;;;;5097294;28;20372;-64
2022/12/10 06:43:53;;;;;;;;;;;0.30;99.90;;;;;;5097239;28;19933;-64
2022/12/10 06:46:19;;;;;;;;;;;0.30;99.90;;;;;;5096606;28;19920;-65
2022/12/10 06:48:45;;;;;;;;;;;0.30;99.90;;;;;;5096899;28;19915;-64
2022/12/10 06:51:11;;;;;;;;;;;0.20;99.90;;;;;;5096813;28;19912;-64
2022/12/10 06:53:37;;;;;;;;;;;0.20;99.90;;;;;;5097043;28;19908;-64
2022/12/10 06:56:03;;;;;;;;;;;0.30;99.90;;;;;;5097002;28;19995;-64
2022/12/10 06:58:29;;;;;;;;;;;0.30;99.90;;;;;;5096950;28;19908;-64
2022/12/10 07:01:01;;;;;;;;;;;0.30;99.90;;;;;;5096860;28;19961;-64
2022/12/10 07:03:27;;;;;;;;;;;0.30;99.90;;;;;;5078859;28;20021;-65
2022/12/10 07:05:56;;;;;;;;;;;0.30;99.90;;;;;;5096448;28;20391;-65
2022/12/10 07:08:23;;;;;;;;;;;0.40;99.90;;;;;;5096768;28;19912;-64
2022/12/10 07:10:48;;;;;;;;;;;0.40;99.90;;;;;;5096738;28;19912;-64
2022/12/10 07:13:14;;;;;;;;;;;0.50;99.90;;;;;;5096689;28;19958;-64
2022/12/10 07:15:39;;;;;;;;;;;0.40;99.90;;;;;;5096663;28;19991;-64
2022/12/10 07:18:04;;;;;;;;;;;0.40;99.90;;;;;;5096631;28;19909;-64
2022/12/10 07:20:30;;;;;;;;;;;0.50;99.90;;;;;;5078194;28;20438;-64
2022/12/10 07:22:55;;;;;;;;;;;0.40;99.90;;;;;;5096238;28;19974;-64
2022/12/10 07:25:21;;;;;;;;;;;0.40;99.90;;;;;;5096383;28;19912;-66
2022/12/10 07:27:46;;;;;;;;;;;0.50;99.90;;;;;;5096146;28;19915;-66
2022/12/10 07:30:12;;;;;;;;;;;0.50;99.90;;;;;;5096379;28;19952;-67
2022/12/10 07:32:37;;;;;;;;;;;0.50;99.90;;;;;;5096039;28;19916;-64
2022/12/10 07:35:03;;;;;;;;;;;0.50;99.90;;;;;;5095992;28;20001;-64
2022/12/10 07:37:28;;;;;;;;;;;0.50;99.90;;;;;;5096218;28;19908;-65
2022/12/10 07:39:54;;;;;;;;;;;0.50;99.90;;;;;;5096085;28;19915;-65
2022/12/10 07:42:19;;;;;;;;;;;0.50;99.90;;;;;;5096102;28;19908;-65
2022/12/10 07:44:45;;;;;;;;;;;0.50;99.90;;;;;;5095965;28;19908;-64
2022/12/10 07:47:10;;;;;;;;;;;0.50;99.90;;;;;;5095512;28;19924;-65
2022/12/10 07:49:36;;;;;;;;;;;0.50;99.90;;;;;;5077981;28;20282;-64
2022/12/10 07:52:01;;;;;;;;;;;0.50;99.90;;;;;;5095645;28;19910;-66
2022/12/10 07:54:27;;;;;;;;;;;0.50;99.90;;;;;;5095873;28;19914;-65
2022/12/10 07:56:52;;;;;;;;;;;0.50;99.90;;;;;;5095819;28;19908;-65
2022/12/10 07:59:18;;;;;;;;;;;0.50;99.90;;;;;;5095793;28;19940;-65
2022/12/10 08:01:43;;;;;;;;;;;0.50;99.90;;;;;;5095539;28;20358;-65
2022/12/10 08:04:09;;;;;;;;;;;0.50;99.90;;;;;;5095642;28;19968;-65
2022/12/10 08:06:34;;;;;;;;;;;0.50;99.90;;;;;;5095543;28;20278;-64
2022/12/10 08:09:00;;;;;;;;;;;0.60;99.90;;;;;;5095594;28;19931;-65
2022/12/10 08:11:26;;;;;;;;;;;0.60;99.90;;;;;;5095536;28;19908;-65
2022/12/10 08:13:52;;;;;;;;;;;0.60;99.90;;;;;;5095442;28;20258;-65
2022/12/10 08:16:19;;;;;;;;;;;0.60;99.90;;;;;;5095466;28;19915;-65
2022/12/10 08:18:45;;;;;;;;;;;0.60;99.90;;;;;;5095387;28;19908;-65
2022/12/10 08:21:12;;;;;;;;;;;0.60;99.90;;;;;;5095359;28;19919;-65
2022/12/10 08:23:38;;;;;;;;;;;0.60;99.90;;;;;;5095369;28;19912;-65
2022/12/10 08:26:05;;;;;;;;;;;0.60;99.90;;;;;;5094919;28;19957;-65
2022/12/10 08:28:31;;;;;;;;;;;0.60;99.90;;;;;;5094956;28;19912;-65
2022/12/10 08:30:56;;;;;;;;;;;0.60;99.90;;;;;;5095152;28;20414;-65
2022/12/10 08:33:22;;;;;;;;;;;0.60;99.90;;;;;;5094793;28;19946;-65
2022/12/10 08:35:47;;;;;;;;;;;0.70;99.90;;;;;;5094781;28;19914;-65
2022/12/10 08:38:13;;;;;;;;;;;0.60;99.90;;;;;;5095033;28;20019;-65
2022/12/10 08:40:39;;;;;;;;;;;0.70;99.90;;;;;;5095012;28;19915;-65
2022/12/10 08:43:05;;;;;;;;;;;0.70;99.90;;;;;;5094940;28;19908;-66
2022/12/10 08:45:30;;;;;;;;;;;0.80;99.90;;;;;;5076291;28;20015;-65
2022/12/10 08:47:56;;;;;;;;;;;0.80;99.90;;;;;;5094810;28;19909;-64
2022/12/10 08:50:21;;;;;;;;;;;0.70;99.90;;;;;;5094776;28;19915;-65
2022/12/10 08:52:47;;;;;;;;;;;0.80;99.90;;;;;;5094777;28;19908;-65
2022/12/10 08:55:12;;;;;;;;;;;0.90;99.90;;;;;;5094212;28;19908;-65
2022/12/10 08:57:38;;;;;;;;;;;0.90;99.90;;;;;;5094732;28;19998;-65
2022/12/10 09:00:03;;;;;;;;;;;0.90;99.90;;;;;;5094635;28;19908;-65
2022/12/10 09:02:29;;;;;;;;;;;0.90;99.90;;;;;;5094257;28;19915;-65
2022/12/10 09:04:55;;;;;;;;;;;1.00;99.90;;;;;;5094287;28;19915;-65
2022/12/10 09:07:21;;;;;;;;;;;1.00;99.90;;;;;;5094503;28;20273;-66
2022/12/10 09:09:47;;;;;;;;;;;1.00;99.90;;;;;;5094468;28;19957;-65
2022/12/10 09:12:12;;;;;;;;;;;1.00;99.90;;;;;;5094447;28;19909;-65
2022/12/10 09:14:40;;;;;;;;;;;1.00;99.90;;;;;;5094415;28;20270;-65
2022/12/10 09:17:05;;;;;;;;;;;0.90;99.90;;;;;;5094322;28;19908;-66
2022/12/10 09:19:31;;;;;;;;;;;1.00;99.90;;;;;;5094351;28;20392;-65
2022/12/10 09:21:56;;;;;;;;;;;1.00;99.90;;;;;;5093967;28;19909;-65
2022/12/10 09:24:23;;;;;;;;;;;0.90;99.90;;;;;;5094216;28;19908;-65
2022/12/10 09:26:48;;;;;;;;;;;1.00;99.90;;;;;;5093814;28;19967;-66
2022/12/10 09:29:14;;;;;;;;;;;1.00;99.90;;;;;;5094181;28;19909;-65
2022/12/10 09:31:39;;;;;;;;;;;1.00;99.90;;;;;;5094165;28;19908;-66
2022/12/10 09:34:05;;;;;;;;;;;1.00;99.90;;;;;;5093959;28;20412;-65
2022/12/10 09:36:30;;;;;;;;;;;1.00;99.90;;;;;;5093831;28;20040;-65
2022/12/10 09:38:55;;;;;;;;;;;1.00;99.90;;;;;;5093797;28;19908;-65
2022/12/10 09:41:32;;;;;;;;;;;1.00;99.90;;;;;;5075737;28;19919;-65
2022/12/10 09:44:02;;;;;;;;;;;1.00;99.90;;;;;;5094049;28;19912;-66
2022/12/10 09:46:41;;;;;;;;;;;1.00;99.90;;;;;;5093498;28;19924;-66
2022/12/10 09:51:46;;;;;;;;;;;1.10;99.90;;;;;;5091197;27;19919;-64
2022/12/10 09:54:18;;;;;;;;;;;1.00;99.90;;;;;;5091098;28;20006;-66
2022/12/10 09:56:44;;;;;;;;;;;0.90;99.90;;;;;;5091380;28;20354;-64
2022/12/10 09:59:29;;;;;;;;;;;1.00;99.90;;;;;;5091293;28;19916;-64
2022/12/10 10:02:03;;;;;;;;;;;1.00;99.90;;;;;;5091253;28;19912;-64
2022/12/10 10:04:28;;;;;;;;;;;1.00;99.90;;;;;;5091242;28;20327;-66
2022/12/10 10:06:54;;;;;;;;;;;1.00;99.90;;;;;;5090822;28;19908;-65
2022/12/10 10:09:20;;;;;;;;;;;1.00;99.90;;;;;;5091048;28;19912;-65
2022/12/10 10:11:46;;;;;;;;;;;1.10;99.90;;;;;;5091078;28;19957;-65
2022/12/10 10:14:14;;;;;;;;;;;1.10;99.90;;;;;;5090752;28;20006;-65
2022/12/10 10:16:45;;;;;;;;;;;1.10;99.90;;;;;;5091043;28;19909;-65
2022/12/10 10:19:13;;;;;;;;;;;1.00;99.90;;;;;;5090916;28;20381;-65
2022/12/10 10:21:41;;;;;;;;;;;1.10;99.90;;;;;;5090893;28;19912;-65
2022/12/10 10:24:09;;;;;;;;;;;1.10;99.90;;;;;;5090825;28;19913;-66
2022/12/10 10:26:35;;;;;;;;;;;1.10;99.90;;;;;;5090850;28;20411;-64
2022/12/10 10:29:01;;;;;;;;;;;1.10;99.90;;;;;;5090735;28;19908;-65
2022/12/10 10:31:34;;;;;;;;;;;1.10;99.90;;;;;;5090298;28;20360;-64
2022/12/10 10:34:01;;;;;;;;;;;1.00;99.90;;;;;;5090701;28;20331;-64
2022/12/10 10:36:28;;;;;;;;;;;1.00;99.90;;;;;;5090598;28;20278;-64
2022/12/10 10:38:54;;;;;;;;;;;1.10;99.90;;;;;;5090557;28;20003;-64
2022/12/10 10:41:20;;;;;;;;;;;1.00;99.90;;;;;;5090505;28;19940;-64
2022/12/10 10:43:47;;;;;;;;;;;1.00;99.90;;;;;;5090358;28;20353;-65
2022/12/10 10:46:28;;;;;;;;;;;1.00;99.90;;;;;;5090431;28;19940;-65
2022/12/10 10:49:11;;;;;;;;;;;1.00;99.90;;;;;;5090414;28;19912;-64
2022/12/10 10:51:41;;;;;;;;;;;1.10;99.90;;;;;;5109377;28;20066;-64
2022/12/10 10:54:06;;;;;;;;;;;1.10;99.90;;;;;;5110665;28;20402;-65
2022/12/10 10:56:39;;;;;;;;;;;1.20;99.90;;;;;;5110341;28;19912;-66
2022/12/10 10:59:06;;;;;;;;;;;1.30;99.90;;;;;;5110543;28;19912;-65
2022/12/10 11:01:52;;;;;;;;;;;1.20;99.90;;;;;;5105499;28;19908;-65
2022/12/10 11:04:21;;;;;;;;;;;1.20;99.90;;;;;;5096386;28;20373;-65
2022/12/10 11:06:55;;;;;;;;;;;1.20;99.90;;;;;;5096804;28;20277;-66
2022/12/10 11:09:25;;;;;;;;;;;1.30;99.90;;;;;;5096691;28;19909;-65
2022/12/10 11:11:57;;;;;;;;;;;1.20;99.90;;;;;;5096702;28;19922;-65
2022/12/10 11:14:24;;;;;;;;;;;1.20;99.90;;;;;;5096360;28;19912;-65
2022/12/10 11:16:50;;;;;;;;;;;1.10;99.90;;;;;;5096593;28;19935;-66
2022/12/10 11:19:19;;;;;;;;;;;1.10;99.90;;;;;;5096599;28;20404;-66
2022/12/10 11:21:44;;;;;;;;;;;1.10;99.90;;;;;;5096235;28;19953;-65
2022/12/10 11:24:11;;;;;;;;;;;1.10;99.90;;;;;;5096197;28;19908;-65
2022/12/10 11:26:56;;;;;;;;;;;1.10;99.90;;;;;;5096353;28;20010;-65
2022/12/10 11:29:42;;;;;;;;;;;1.10;99.90;;;;;;5095850;28;19995;-66
2022/12/10 11:32:16;;;;;;;;;;;1.20;99.90;;;;;;5095899;28;19965;-65
2022/12/10 11:35:02;;;;;;;;;;;1.20;99.90;;;;;;5095901;28;19908;-65
2022/12/10 11:37:32;;;;;;;;;;;1.20;99.90;;;;;;5095767;28;19908;-65
2022/12/10 11:40:17;;;;;;;;;;;1.10;99.90;;;;;;5096041;28;20358;-65
2022/12/10 11:42:48;;;;;;;;;;;1.10;99.90;;;;;;5095571;28;20369;-65
2022/12/10 11:45:20;;;;;;;;;;;1.20;99.90;;;;;;5095916;28;19912;-65
2022/12/10 11:48:06;;;;;;;;;;;1.20;99.90;;;;;;5095624;28;19908;-66
2022/12/10 11:50:48;;;;;;;;;;;1.20;99.90;;;;;;5077177;28;19999;-66
2022/12/10 11:53:23;;;;;;;;;;;1.10;99.90;;;;;;5095893;28;20407;-66
2022/12/10 11:56:08;;;;;;;;;;;1.10;99.90;;;;;;5095818;28;20268;-65
2022/12/10 11:58:54;;;;;;;;;;;1.10;99.90;;;;;;5095422;28;20431;-66
2022/12/10 12:01:29;;;;;;;;;;;1.10;99.90;;;;;;5095220;28;19954;-65
2022/12/10 12:06:47;;;;;;;;;;;1.20;99.90;;;;;;5091359;27;19913;-66
2022/12/10 12:09:33;;;;;;;;;;;1.20;99.90;;;;;;5091433;28;19923;-66
2022/12/10 12:12:18;;;;;;;;;;;1.10;99.90;;;;;;5091145;28;19948;-66
2022/12/10 12:14:50;;;;;;;;;;;1.20;99.90;;;;;;5089805;28;19912;-66
2022/12/10 12:17:21;;;;;;;;;;;1.10;99.90;;;;;;5091306;28;19912;-66
2022/12/10 12:19:56;;;;;;;;;;;1.20;99.90;;;;;;5091278;28;20285;-66
2022/12/10 12:22:23;;;;;;;;;;;1.20;99.90;;;;;;5091171;28;19978;-66
2022/12/10 12:24:50;;;;;;;;;;;1.20;99.90;;;;;;5090710;28;19913;-67
2022/12/10 12:27:33;;;;;;;;;;;1.30;99.90;;;;;;5090736;28;19951;-66
2022/12/10 12:30:04;;;;;;;;;;;1.30;99.90;;;;;;5090754;28;19912;-66
2022/12/10 12:32:50;;;;;;;;;;;1.30;99.90;;;;;;5090960;28;20323;-66
2022/12/10 12:35:21;;;;;;;;;;;1.40;99.90;;;;;;5090581;28;19915;-67
2022/12/10 12:37:52;;;;;;;;;;;1.50;99.90;;;;;;5090532;28;20003;-66
2022/12/10 12:40:27;;;;;;;;;;;1.60;99.90;;;;;;5090843;28;19908;-66
2022/12/10 12:42:56;;;;;;;;;;;1.60;99.90;;;;;;5090735;28;19908;-66
2022/12/10 12:45:39;;;;;;;;;;;1.60;99.90;;;;;;5090609;28;19930;-66
2022/12/10 12:48:10;;;;;;;;;;;1.60;99.90;;;;;;5123500;28;20446;-66
2022/12/10 12:50:55;;;;;;;;;;;1.60;99.90;;;;;;5090337;28;19909;-67
2022/12/10 12:53:23;;;;;;;;;;;1.60;99.90;;;;;;5089003;28;19908;-67
2022/12/10 12:55:54;;;;;;;;;;;1.50;99.90;;;;;;5090507;28;19908;-67
2022/12/10 12:58:24;;;;;;;;;;;1.40;99.90;;;;;;5090512;28;19919;-66
2022/12/10 13:00:51;;;;;;;;;;;1.40;99.90;;;;;;5090469;28;20370;-66
2022/12/10 13:03:37;;;;;;;;;;;1.40;99.90;;;;;;5090210;28;19946;-67
2022/12/10 13:06:22;;;;;;;;;;;1.40;99.90;;;;;;5106396;28;19932;-67
2022/12/10 13:08:49;;;;;;;;;;;1.40;99.90;;;;;;5110588;28;19954;-66
2022/12/10 13:11:17;;;;;;;;;;;1.30;99.90;;;;;;5110566;28;20300;-66
2022/12/10 13:14:02;;;;;;;;;;;1.30;99.90;;;;;;5110244;28;19970;-67
2022/12/10 13:16:36;;;;;;;;;;;1.20;99.90;;;;;;5104560;28;19916;-66
2022/12/10 13:19:22;;;;;;;;;;;1.20;99.90;;;;;;5096893;28;20259;-66
2022/12/10 13:21:54;;;;;;;;;;;1.20;99.90;;;;;;5096457;28;19908;-67
2022/12/10 13:24:39;;;;;;;;;;;1.20;99.90;;;;;;5096459;28;19912;-66
2022/12/10 13:27:16;;;;;;;;;;;1.20;99.90;;;;;;5096239;28;19958;-66
2022/12/10 13:29:46;;;;;;;;;;;1.20;99.90;;;;;;5096660;28;20289;-66
2022/12/10 13:32:15;;;;;;;;;;;1.30;99.90;;;;;;5096640;28;19950;-67
2022/12/10 13:34:40;;;;;;;;;;;1.20;99.90;;;;;;5096306;28;19991;-67
2022/12/10 13:37:15;;;;;;;;;;;1.10;99.90;;;;;;5096428;28;20355;-66
2022/12/10 13:40:00;;;;;;;;;;;1.20;99.90;;;;;;5096490;28;20293;-67
2022/12/10 13:48:18;;;;;;;;;;;1.10;99.90;;;;;;5091258;27;19912;-65
2022/12/10 13:50:47;;;;;;;;;;;1.10;99.90;;;;;;5091164;28;19918;-64
2022/12/10 13:53:20;;;;;;;;;;;1.10;99.90;;;;;;5091256;28;20363;-65
2022/12/10 13:55:54;;;;;;;;;;;1.10;99.90;;;;;;5091069;28;19915;-64
2022/12/10 13:58:27;;;;;;;;;;;1.10;99.90;;;;;;5090940;28;19948;-64
2022/12/10 14:03:51;;;;;;;;;;;1.20;99.90;;;;;;5071141;28;19913;-66
2022/12/10 14:06:18;;;;;;;;;;;1.20;99.90;;;;;;5070907;28;19913;-67
2022/12/10 14:08:53;;;;;;;;;;;1.10;99.90;;;;;;5071138;28;19909;-66
2022/12/10 14:11:21;;;;;;;;;;;1.10;99.90;;;;;;5071101;28;19959;-67
2022/12/10 14:13:49;;;;;;;;;;;1.00;99.90;;;;;;5071027;28;19909;-66
2022/12/10 14:16:15;;;;;;;;;;;1.00;99.90;;;;;;5070882;28;19909;-67
2022/12/10 14:18:42;;;;;;;;;;;1.00;99.90;;;;;;5070661;28;19916;-67
2022/12/10 14:21:08;;;;;;;;;;;1.00;99.90;;;;;;5070841;28;20003;-66
2022/12/10 14:23:36;;;;;;;;;;;0.90;99.90;;;;;;5070849;28;20410;-66
2022/12/10 14:26:07;;;;;;;;;;;0.90;99.90;;;;;;5070825;28;19909;-66
2022/12/10 14:28:37;;;;;;;;;;;0.90;99.90;;;;;;5086411;28;19920;-66
2022/12/10 14:31:02;;;;;;;;;;;0.90;99.90;;;;;;5070692;28;20387;-66
2022/12/10 14:33:28;;;;;;;;;;;0.90;99.90;;;;;;5070717;28;19909;-66
2022/12/10 14:35:53;;;;;;;;;;;0.90;99.90;;;;;;5070369;28;19915;-66
2022/12/10 14:38:21;;;;;;;;;;;0.80;99.90;;;;;;5070314;28;19982;-66
2022/12/10 14:40:46;;;;;;;;;;;0.80;99.90;;;;;;5070538;28;19913;-67
2022/12/10 14:43:14;;;;;;;;;;;0.90;99.90;;;;;;5070169;28;19913;-66
2022/12/10 14:45:50;;;;;;;;;;;0.90;99.90;;;;;;5070219;28;19912;-67
2022/12/10 14:48:16;;;;;;;;;;;0.80;99.90;;;;;;5070404;28;19958;-66
2022/12/10 14:50:42;;;;;;;;;;;0.70;99.90;;;;;;5070375;28;20310;-66
2022/12/10 14:53:16;;;;;;;;;;;0.60;99.90;;;;;;5070049;28;19961;-66
2022/12/10 14:55:42;;;;;;;;;;;0.60;99.90;;;;;;5069998;28;20003;-66
2022/12/10 14:58:13;;;;;;;;;;;0.60;99.90;;;;;;5070111;28;19959;-66
2022/12/10 15:00:39;;;;;;;;;;;0.60;99.90;;;;;;5069848;28;19967;-66
2022/12/10 15:03:09;;;;;;;;;;;0.60;99.90;;;;;;5086574;28;19920;-66
2022/12/10 15:05:36;;;;;;;;;;;0.60;99.90;;;;;;5071807;28;19916;-67